createdAt,value
2019-03-11T00:01:04.222Z,7.00
2019-03-11T00:03:31.131Z,7.00
2019-03-11T00:05:58.065Z,7.10
2019-03-11T00:08:25.016Z,7.00
2019-03-11T00:10:51.951Z,7.10
2019-03-11T00:13:18.903Z,7.10
2019-03-11T00:15:46.385Z,7.10
2019-03-11T00:18:13.343Z,6.90
2019-03-11T00:20:40.241Z,6.90
2019-03-11T00:23:07.179Z,6.70
2019-03-11T00:25:34.128Z,6.70
2019-03-11T00:28:01.075Z,6.70
2019-03-11T00:30:28.023Z,7.40
2019-03-11T00:32:54.959Z,6.80
2019-03-11T00:35:21.893Z,6.80
2019-03-11T00:37:48.868Z,6.70
2019-03-11T00:40:15.780Z,6.80
2019-03-11T00:42:42.696Z,6.60
2019-03-11T00:45:10.117Z,6.70
2019-03-11T00:47:37.033Z,6.60
2019-03-11T00:50:04.897Z,6.60
2019-03-11T00:52:31.884Z,6.60
2019-03-11T00:54:58.774Z,6.70
2019-03-11T00:57:25.695Z,6.60
2019-03-11T00:59:52.662Z,6.60
2019-03-11T01:02:19.601Z,6.50
2019-03-11T01:04:46.525Z,6.60
2019-03-11T01:07:13.468Z,6.60
2019-03-11T01:09:40.410Z,6.70
2019-03-11T01:12:07.359Z,6.60
2019-03-11T01:14:35.946Z,6.60
2019-03-11T01:17:02.440Z,6.60
2019-03-11T01:19:29.380Z,6.60
2019-03-11T01:21:56.316Z,6.50
2019-03-11T01:24:23.232Z,6.50
2019-03-11T01:26:50.171Z,6.50
2019-03-11T01:29:17.141Z,6.60
2019-03-11T01:31:44.144Z,6.50
2019-03-11T01:34:11.058Z,6.50
2019-03-11T01:36:38.008Z,6.50
2019-03-11T01:39:05.881Z,6.50
2019-03-11T01:41:32.818Z,6.50
2019-03-11T01:43:59.786Z,6.50
2019-03-11T01:46:26.721Z,6.50
2019-03-11T01:48:53.651Z,6.30
2019-03-11T01:51:20.656Z,6.40
2019-03-11T01:53:47.550Z,6.50
2019-03-11T01:56:14.473Z,6.30
2019-03-11T01:58:41.436Z,6.40
2019-03-11T02:01:08.364Z,6.30
2019-03-11T02:03:35.313Z,6.30
2019-03-11T02:06:02.258Z,6.40
2019-03-11T02:08:29.188Z,6.40
2019-03-11T02:10:56.129Z,6.30
2019-03-11T02:13:23.069Z,6.40
2019-03-11T02:15:50.033Z,6.30
2019-03-11T02:18:17.338Z,6.30
2019-03-11T02:20:44.273Z,6.30
2019-03-11T02:23:11.205Z,6.20
2019-03-11T02:25:38.144Z,6.20
2019-03-11T02:28:05.088Z,6.30
2019-03-11T02:30:32.036Z,6.30
2019-03-11T02:32:58.969Z,6.30
2019-03-11T02:35:27.324Z,6.20
2019-03-11T02:37:54.322Z,6.20
2019-03-11T02:40:21.262Z,6.80
2019-03-11T02:42:48.214Z,6.20
2019-03-11T02:45:15.153Z,6.30
2019-03-11T02:47:42.044Z,6.30
2019-03-11T02:50:09.026Z,6.20
2019-03-11T02:52:35.922Z,6.20
2019-03-11T02:55:03.314Z,6.20
2019-03-11T02:57:30.239Z,6.20
2019-03-11T02:59:57.203Z,6.20
2019-03-11T03:02:32.470Z,6.30
2019-03-11T03:05:06.560Z,6.30
2019-03-11T03:07:33.489Z,6.30
2019-03-11T03:10:00.577Z,6.30
2019-03-11T03:12:27.394Z,6.30
2019-03-11T03:14:54.325Z,6.10
2019-03-11T03:17:21.252Z,6.30
2019-03-11T03:19:48.585Z,6.30
2019-03-11T03:22:15.536Z,6.30
2019-03-11T03:24:42.450Z,6.30
2019-03-11T03:27:09.395Z,6.30
2019-03-11T03:29:36.333Z,6.30
2019-03-11T03:32:03.303Z,6.30
2019-03-11T03:34:30.219Z,6.20
2019-03-11T03:36:57.150Z,6.30
2019-03-11T03:39:24.090Z,6.40
2019-03-11T03:41:51.030Z,6.30
2019-03-11T03:44:17.976Z,6.40
2019-03-11T03:46:44.937Z,6.30
2019-03-11T03:49:11.880Z,6.40
2019-03-11T03:51:38.828Z,6.40
2019-03-11T03:54:05.786Z,6.40
2019-03-11T03:56:32.719Z,6.40
2019-03-11T03:58:59.674Z,6.40
2019-03-11T04:01:26.643Z,6.40
2019-03-11T04:03:53.560Z,6.50
2019-03-11T04:06:20.531Z,6.50
2019-03-11T04:08:47.492Z,6.50
2019-03-11T04:11:14.418Z,6.40
2019-03-11T04:13:41.374Z,6.30
2019-03-11T04:16:08.303Z,6.30
2019-03-11T04:18:48.932Z,6.10
2019-03-11T04:21:16.140Z,6.10
2019-03-11T04:23:43.070Z,6.20
2019-03-11T04:26:10.065Z,6.20
2019-03-11T04:28:36.976Z,6.10
2019-03-11T04:31:03.906Z,6.20
2019-03-11T04:33:30.850Z,6.10
2019-03-11T04:35:57.806Z,6.10
2019-03-11T04:38:24.748Z,6.10
2019-03-11T04:40:51.717Z,6.10
2019-03-11T04:43:18.722Z,6.10
2019-03-11T04:45:45.756Z,6.10
2019-03-11T04:48:12.702Z,6.00
2019-03-11T04:50:39.610Z,6.00
2019-03-11T04:53:06.535Z,6.10
2019-03-11T04:55:33.488Z,6.00
2019-03-11T04:58:00.420Z,5.90
2019-03-11T05:00:27.848Z,5.90
2019-03-11T05:02:54.792Z,5.80
2019-03-11T05:05:21.704Z,5.90
2019-03-11T05:07:48.665Z,5.80
2019-03-11T05:10:16.428Z,5.90
2019-03-11T05:12:42.556Z,5.70
2019-03-11T05:15:09.521Z,5.80
2019-03-11T05:17:36.460Z,5.70
2019-03-11T05:20:04.253Z,5.70
2019-03-11T05:22:32.716Z,5.70
2019-03-11T05:24:59.659Z,5.70
2019-03-11T05:27:26.595Z,5.60
2019-03-11T05:29:53.516Z,5.70
2019-03-11T05:32:20.469Z,5.80
2019-03-11T05:34:47.547Z,5.80
2019-03-11T05:37:14.484Z,5.90
2019-03-11T05:39:41.441Z,5.80
2019-03-11T05:42:08.431Z,5.70
2019-03-11T05:44:35.360Z,5.70
2019-03-11T05:47:02.291Z,5.80
2019-03-11T05:49:29.248Z,5.70
2019-03-11T05:51:56.168Z,5.90
2019-03-11T05:54:23.703Z,5.70
2019-03-11T05:56:51.135Z,5.70
2019-03-11T05:59:18.048Z,5.70
2019-03-11T06:01:45.008Z,5.70
2019-03-11T06:04:11.935Z,5.80
2019-03-11T06:06:38.872Z,5.80
2019-03-11T06:09:05.905Z,5.80
2019-03-11T06:11:32.851Z,5.80
2019-03-11T06:13:59.785Z,5.80
2019-03-11T06:16:26.742Z,5.90
2019-03-11T06:18:53.744Z,6.00
2019-03-11T06:21:27.201Z,5.80
2019-03-11T06:23:54.697Z,5.80
2019-03-11T06:26:21.627Z,5.80
2019-03-11T06:28:48.574Z,5.80
2019-03-11T06:31:15.542Z,5.80
2019-03-11T06:33:42.461Z,5.70
2019-03-11T06:36:09.404Z,5.60
2019-03-11T06:38:36.355Z,5.70
2019-03-11T06:41:03.285Z,5.70
2019-03-11T06:43:30.269Z,5.70
2019-03-11T06:45:57.179Z,5.80
2019-03-11T06:48:24.101Z,5.60
2019-03-11T06:50:51.032Z,5.60
2019-03-11T06:53:18.028Z,5.60
2019-03-11T06:55:44.895Z,5.70
2019-03-11T06:58:11.815Z,5.70
2019-03-11T07:00:38.764Z,5.70
2019-03-11T07:03:05.696Z,5.70
2019-03-11T07:05:32.635Z,5.70
2019-03-11T07:07:59.600Z,5.70
2019-03-11T07:10:26.533Z,5.80
2019-03-11T07:12:53.477Z,5.70
2019-03-11T07:15:20.452Z,5.60
2019-03-11T07:17:47.384Z,5.70
2019-03-11T07:20:14.321Z,5.70
2019-03-11T07:22:41.279Z,5.80
2019-03-11T07:25:09.642Z,5.80
2019-03-11T07:27:36.566Z,5.80
2019-03-11T07:30:04.168Z,5.70
2019-03-11T07:32:31.075Z,5.80
2019-03-11T07:35:08.022Z,5.90
2019-03-11T07:37:24.964Z,5.70
2019-03-11T07:39:51.921Z,5.60
2019-03-11T07:42:18.857Z,5.30
2019-03-11T07:44:45.788Z,5.00
2019-03-11T07:47:12.713Z,4.60
2019-03-11T07:49:39.656Z,4.20
2019-03-11T07:52:06.598Z,4.00
2019-03-11T07:54:36.046Z,3.80
2019-03-11T07:57:00.457Z,3.40
2019-03-11T07:59:27.394Z,3.40
2019-03-11T08:01:54.337Z,3.40
2019-03-11T08:04:21.264Z,3.40
2019-03-11T08:06:48.216Z,3.30
2019-03-11T08:09:15.144Z,3.20
2019-03-11T08:11:42.089Z,3.20
2019-03-11T08:14:09.016Z,3.20
2019-03-11T08:16:35.965Z,3.20
2019-03-11T08:19:02.902Z,3.20
2019-03-11T08:21:29.827Z,3.40
2019-03-11T08:23:56.749Z,3.10
2019-03-11T08:26:25.031Z,3.10
2019-03-11T08:28:51.981Z,3.10
2019-03-11T08:31:18.897Z,3.00
2019-03-11T08:33:45.870Z,3.60
2019-03-11T08:36:12.802Z,3.20
2019-03-11T08:38:39.710Z,3.40
2019-03-11T08:41:06.645Z,4.00
2019-03-11T08:43:33.581Z,4.40
2019-03-11T08:46:00.538Z,5.20
2019-03-11T08:48:27.497Z,5.40
2019-03-11T08:50:54.458Z,5.80
2019-03-11T08:53:21.369Z,6.40
2019-03-11T08:55:48.536Z,6.90
2019-03-11T08:58:15.428Z,7.20
2019-03-11T09:00:42.349Z,7.40
2019-03-11T09:03:09.272Z,7.20
2019-03-11T09:05:36.291Z,7.20
2019-03-11T09:08:03.237Z,7.10
2019-03-11T09:10:30.165Z,7.00
2019-03-11T09:12:57.116Z,6.90
2019-03-11T09:15:24.050Z,6.40
2019-03-11T09:17:51.000Z,6.50
2019-03-11T09:20:17.949Z,6.50
2019-03-11T09:22:44.867Z,6.30
2019-03-11T09:25:12.556Z,6.50
2019-03-11T09:27:39.857Z,6.80
2019-03-11T09:30:08.653Z,7.00
2019-03-11T09:32:35.605Z,7.00
2019-03-11T09:35:02.879Z,6.90
2019-03-11T09:37:29.820Z,6.70
2019-03-11T09:39:56.784Z,6.90
2019-03-11T09:42:23.719Z,6.90
2019-03-11T09:44:50.640Z,7.00
2019-03-11T09:47:17.590Z,7.40
2019-03-11T09:49:44.534Z,7.60
2019-03-11T09:52:11.461Z,7.70
2019-03-11T09:54:38.409Z,7.50
2019-03-11T09:57:05.383Z,7.70
2019-03-11T09:59:32.325Z,8.20
2019-03-11T10:01:59.244Z,8.60
2019-03-11T10:04:26.200Z,8.80
2019-03-11T10:06:53.151Z,9.20
2019-03-11T10:09:20.081Z,9.00
2019-03-11T10:11:47.065Z,9.00
2019-03-11T10:14:14.003Z,8.50
2019-03-11T10:16:40.917Z,8.40
2019-03-11T10:19:07.886Z,8.40
2019-03-11T10:21:34.789Z,8.20
2019-03-11T10:24:01.712Z,8.40
2019-03-11T10:26:28.656Z,8.20
2019-03-11T10:28:57.104Z,8.30
2019-03-11T10:31:24.037Z,8.10
2019-03-11T10:33:51.001Z,8.00
2019-03-11T10:36:17.935Z,8.50
2019-03-11T10:38:44.864Z,9.20
2019-03-11T10:41:11.821Z,9.60
2019-03-11T10:43:38.752Z,9.70
2019-03-11T10:46:05.700Z,9.40
2019-03-11T10:48:37.213Z,9.40
2019-03-11T10:50:59.708Z,9.30
2019-03-11T10:53:26.580Z,9.00
2019-03-11T10:55:53.476Z,8.90
2019-03-11T10:58:20.400Z,9.00
2019-03-11T11:00:47.328Z,9.20
2019-03-11T11:03:14.272Z,9.20
2019-03-11T11:05:41.196Z,9.50
2019-03-11T11:08:08.172Z,9.70
2019-03-11T11:10:35.153Z,10.40
2019-03-11T11:13:02.068Z,9.70
2019-03-11T11:15:29.019Z,8.80
2019-03-11T11:17:55.959Z,8.10
2019-03-11T11:20:22.941Z,7.60
2019-03-11T11:22:49.881Z,7.30
2019-03-11T11:25:19.002Z,6.80
2019-03-11T11:27:45.978Z,6.90
2019-03-11T11:30:17.120Z,7.30
2019-03-11T11:32:44.146Z,8.10
2019-03-11T11:35:11.001Z,9.00
2019-03-11T11:37:37.937Z,9.40
2019-03-11T11:40:07.641Z,9.80
2019-03-11T11:42:34.561Z,9.70
2019-03-11T11:45:01.510Z,9.90
2019-03-11T11:47:28.472Z,10.00
2019-03-11T11:49:55.390Z,10.20
2019-03-11T11:52:22.324Z,10.30
2019-03-11T11:54:49.303Z,10.70
2019-03-11T11:57:16.247Z,11.10
2019-03-11T11:59:53.722Z,11.40
2019-03-11T12:02:10.129Z,11.60
2019-03-11T12:04:37.081Z,12.10
2019-03-11T12:07:04.028Z,12.20
2019-03-11T12:09:31.017Z,11.70
2019-03-11T12:11:57.935Z,11.30
2019-03-11T12:14:24.860Z,10.70
2019-03-11T12:16:51.824Z,10.30
2019-03-11T12:19:18.749Z,9.60
2019-03-11T12:21:45.690Z,9.30
2019-03-11T12:24:12.633Z,9.40
2019-03-11T12:26:39.686Z,9.30
2019-03-11T12:29:06.641Z,9.50
2019-03-11T12:31:34.040Z,9.30
2019-03-11T12:34:01.055Z,9.70
2019-03-11T12:36:27.972Z,10.20
2019-03-11T12:38:54.905Z,10.40
2019-03-11T12:41:21.828Z,11.00
2019-03-11T12:43:48.743Z,11.50
2019-03-11T12:46:15.696Z,11.50
2019-03-11T12:48:42.616Z,11.50
2019-03-11T12:51:09.545Z,11.60
2019-03-11T12:53:36.494Z,11.10
2019-03-11T12:56:03.408Z,11.70
2019-03-11T12:58:40.750Z,11.70
2019-03-11T13:00:57.288Z,11.60
2019-03-11T13:03:24.203Z,11.10
2019-03-11T13:05:51.113Z,10.70
2019-03-11T13:08:18.062Z,10.60
2019-03-11T13:10:44.973Z,10.70
2019-03-11T13:13:11.893Z,10.20
2019-03-11T13:15:38.839Z,9.70
2019-03-11T13:18:18.332Z,9.30
2019-03-11T13:20:45.593Z,9.40
2019-03-11T13:23:12.694Z,9.10
2019-03-11T13:25:39.630Z,9.00
2019-03-11T13:28:06.568Z,8.70
2019-03-11T13:30:33.496Z,8.70
2019-03-11T13:33:01.584Z,8.40
2019-03-11T13:35:28.509Z,8.20
2019-03-11T13:37:55.443Z,8.50
2019-03-11T13:40:22.352Z,8.30
2019-03-11T13:42:49.314Z,8.20
2019-03-11T13:45:16.297Z,8.70
2019-03-11T13:47:43.215Z,8.30
2019-03-11T13:50:10.182Z,8.50
2019-03-11T13:52:37.340Z,8.60
2019-03-11T13:55:10.333Z,8.80
2019-03-11T13:57:31.427Z,8.80
2019-03-11T13:59:58.351Z,8.70
2019-03-11T14:02:25.280Z,8.80
2019-03-11T14:04:52.279Z,8.50
2019-03-11T14:07:19.192Z,8.40
2019-03-11T14:09:46.119Z,8.30
2019-03-11T14:12:13.076Z,8.30
2019-03-11T14:14:40.002Z,8.50
2019-03-11T14:17:06.920Z,8.50
2019-03-11T14:19:33.849Z,8.60
2019-03-11T14:22:00.782Z,8.50
2019-03-11T14:24:27.720Z,8.50
2019-03-11T14:26:54.647Z,8.70
2019-03-11T14:29:21.602Z,9.00
2019-03-11T14:31:48.545Z,9.10
2019-03-11T14:34:17.155Z,7.60
2019-03-11T14:36:44.096Z,8.70
2019-03-11T14:39:11.288Z,8.60
2019-03-11T14:41:38.305Z,8.50
2019-03-11T14:44:05.237Z,8.40
2019-03-11T14:46:32.288Z,8.00
2019-03-11T14:48:59.296Z,7.60
2019-03-11T14:51:26.256Z,7.60
2019-03-11T14:53:53.271Z,7.50
2019-03-11T14:56:20.224Z,7.40
2019-03-11T14:58:47.144Z,7.30
2019-03-11T15:01:14.072Z,7.20
2019-03-11T15:03:41.047Z,7.20
2019-03-11T15:06:07.964Z,7.50
2019-03-11T15:08:34.949Z,7.80
2019-03-11T15:11:01.884Z,7.90
2019-03-11T15:13:28.839Z,7.90
2019-03-11T15:15:55.776Z,7.80
2019-03-11T15:18:22.738Z,7.70
2019-03-11T15:20:49.673Z,7.90
2019-03-11T15:23:20.782Z,7.90
2019-03-11T15:25:43.550Z,8.10
2019-03-11T15:28:10.581Z,8.10
2019-03-11T15:30:37.483Z,8.10
2019-03-11T15:33:04.425Z,7.90
2019-03-11T15:35:32.593Z,8.00
2019-03-11T15:37:59.536Z,8.00
2019-03-11T15:40:26.484Z,7.70
2019-03-11T15:42:53.412Z,7.70
2019-03-11T15:45:20.351Z,7.70
2019-03-11T15:47:47.317Z,7.70
2019-03-11T15:50:16.357Z,8.50
2019-03-11T15:52:43.310Z,7.50
2019-03-11T15:55:11.062Z,7.20
2019-03-11T15:57:39.208Z,6.90
2019-03-11T16:00:05.818Z,6.60
2019-03-11T16:02:32.744Z,6.50
2019-03-11T16:04:59.681Z,6.50
2019-03-11T16:07:26.628Z,6.80
2019-03-11T16:09:53.601Z,6.40
2019-03-11T16:12:20.553Z,6.60
2019-03-11T16:14:49.672Z,6.40
2019-03-11T16:17:14.474Z,6.50
2019-03-11T16:19:41.405Z,6.40
2019-03-11T16:22:08.329Z,6.20
2019-03-11T16:24:35.272Z,6.30
2019-03-11T16:27:02.186Z,6.20
2019-03-11T16:29:29.120Z,6.10
2019-03-11T16:31:56.063Z,6.10
2019-03-11T16:34:23.013Z,6.20
2019-03-11T16:36:50.328Z,7.30
2019-03-11T16:39:17.298Z,6.10
2019-03-11T16:41:44.237Z,6.10
2019-03-11T16:44:11.185Z,6.10
2019-03-11T16:46:38.141Z,5.90
2019-03-11T16:49:05.086Z,6.10
2019-03-11T16:51:32.014Z,6.00
2019-03-11T16:53:58.963Z,5.90
2019-03-11T16:56:25.910Z,5.90
2019-03-11T16:58:52.843Z,5.90
2019-03-11T17:01:19.802Z,6.00
2019-03-11T17:03:46.733Z,5.90
2019-03-11T17:06:14.084Z,6.00
2019-03-11T17:08:43.501Z,6.00
2019-03-11T17:11:10.427Z,6.00
2019-03-11T17:13:37.347Z,6.10
2019-03-11T17:16:04.306Z,5.90
2019-03-11T17:18:31.298Z,6.00
2019-03-11T17:20:58.234Z,6.00
2019-03-11T17:23:26.161Z,5.30
2019-03-11T17:25:53.437Z,6.70
2019-03-11T17:28:20.398Z,6.10
2019-03-11T17:30:47.354Z,6.00
2019-03-11T17:33:14.298Z,6.00
2019-03-11T17:35:41.207Z,6.00
2019-03-11T17:38:08.677Z,6.00
2019-03-11T17:40:36.493Z,6.00
2019-03-11T17:43:03.440Z,5.90
2019-03-11T17:45:30.442Z,5.90
2019-03-11T17:47:57.685Z,6.00
2019-03-11T17:50:26.254Z,5.90
2019-03-11T17:52:56.858Z,5.10
2019-03-11T17:55:23.780Z,6.80
2019-03-11T17:57:50.773Z,6.00
2019-03-11T18:00:20.209Z,6.00
2019-03-11T18:02:47.171Z,6.00
2019-03-11T18:05:14.329Z,5.90
2019-03-11T18:07:41.297Z,6.00
2019-03-11T18:10:28.903Z,6.00
2019-03-11T18:13:03.448Z,6.00
2019-03-11T18:15:32.123Z,6.10
2019-03-11T18:17:59.004Z,6.10
2019-03-11T18:20:26.062Z,6.20
2019-03-11T18:22:53.007Z,6.20
2019-03-11T18:25:20.071Z,6.10
2019-03-11T18:27:46.965Z,6.20
2019-03-11T18:30:16.455Z,6.20
2019-03-11T18:32:43.402Z,6.20
2019-03-11T18:35:10.357Z,6.30
2019-03-11T18:37:37.293Z,6.20
2019-03-11T18:40:07.725Z,6.30
2019-03-11T18:42:34.702Z,6.20
2019-03-11T18:45:01.679Z,6.30
2019-03-11T18:47:28.620Z,6.30
2019-03-11T18:49:55.539Z,6.30
2019-03-11T18:52:22.489Z,6.30
2019-03-11T18:54:49.407Z,6.30
2019-03-11T18:57:16.378Z,6.30
2019-03-11T18:59:43.283Z,6.30
2019-03-11T19:02:10.207Z,6.30
2019-03-11T19:04:37.158Z,6.30
2019-03-11T19:07:04.117Z,6.20
2019-03-11T19:09:31.055Z,6.10
2019-03-11T19:11:57.980Z,5.90
2019-03-11T19:14:24.884Z,6.30
2019-03-11T19:16:51.821Z,5.90
2019-03-11T19:19:18.789Z,6.00
2019-03-11T19:21:45.715Z,6.00
2019-03-11T19:24:12.663Z,6.00
2019-03-11T19:26:39.595Z,5.90
2019-03-11T19:29:06.540Z,5.90
2019-03-11T19:31:33.500Z,5.80
2019-03-11T19:34:00.425Z,5.90
2019-03-11T19:36:27.488Z,5.80
2019-03-11T19:38:56.795Z,6.10
2019-03-11T19:41:21.517Z,6.00
2019-03-11T19:43:48.481Z,5.90
2019-03-11T19:46:15.397Z,5.90
2019-03-11T19:48:43.567Z,5.90
2019-03-11T19:51:09.283Z,5.90
2019-03-11T19:53:36.169Z,5.80
2019-03-11T19:56:03.254Z,5.90
2019-03-11T19:58:30.158Z,5.90
2019-03-11T20:00:57.104Z,6.00
2019-03-11T20:03:30.270Z,5.90
2019-03-11T20:05:53.809Z,5.80
2019-03-11T20:08:17.959Z,5.80
2019-03-11T20:10:45.001Z,5.70
2019-03-11T20:13:11.887Z,5.50
2019-03-11T20:15:38.823Z,5.70
2019-03-11T20:18:05.756Z,5.60
2019-03-11T20:20:32.673Z,5.40
2019-03-11T20:22:59.689Z,5.40
2019-03-11T20:25:26.695Z,5.50
2019-03-11T20:27:53.726Z,5.60
2019-03-11T20:30:20.627Z,5.50
2019-03-11T20:32:47.570Z,5.50
2019-03-11T20:35:17.321Z,5.70
2019-03-11T20:37:41.389Z,5.60
2019-03-11T20:40:08.515Z,5.70
2019-03-11T20:42:36.831Z,5.80
2019-03-11T20:45:04.176Z,5.80
2019-03-11T20:47:31.074Z,5.90
2019-03-11T20:49:58.027Z,5.90
2019-03-11T20:52:24.924Z,5.90
2019-03-11T20:54:51.887Z,5.90
2019-03-11T20:57:18.805Z,5.90
2019-03-11T20:59:45.797Z,5.80
2019-03-11T21:02:12.767Z,5.90
2019-03-11T21:04:39.734Z,5.90
2019-03-11T21:07:06.615Z,5.90
2019-03-11T21:09:33.574Z,5.90
2019-03-11T21:12:00.473Z,5.90
2019-03-11T21:14:27.415Z,5.90
2019-03-11T21:16:54.333Z,6.00
2019-03-11T21:19:21.287Z,5.00
2019-03-11T21:21:48.266Z,5.80
2019-03-11T21:24:15.155Z,5.90
2019-03-11T21:26:42.098Z,5.90
2019-03-11T21:29:09.103Z,6.00
2019-03-11T21:31:36.097Z,6.00
2019-03-11T21:34:02.961Z,5.90
2019-03-11T21:36:29.883Z,6.00
2019-03-11T21:38:56.901Z,6.10
2019-03-11T21:41:23.844Z,5.90
2019-03-11T21:43:50.997Z,6.00
2019-03-11T21:46:17.928Z,6.00
2019-03-11T21:48:44.876Z,5.90
2019-03-11T21:51:11.806Z,6.00
2019-03-11T21:53:38.722Z,5.90
2019-03-11T21:56:05.683Z,5.90
2019-03-11T21:58:32.717Z,6.00
2019-03-11T22:00:59.542Z,5.90
2019-03-11T22:03:26.487Z,5.80
2019-03-11T22:05:53.440Z,5.90
2019-03-11T22:08:20.393Z,5.80
2019-03-11T22:10:47.331Z,6.60
2019-03-11T22:13:14.246Z,6.00
2019-03-11T22:15:41.224Z,6.00
2019-03-11T22:18:08.139Z,6.70
2019-03-11T22:20:35.069Z,5.90
2019-03-11T22:23:02.020Z,5.90
2019-03-11T22:25:28.994Z,5.90
2019-03-11T22:27:55.910Z,5.90
2019-03-11T22:30:22.878Z,5.90
2019-03-11T22:32:49.804Z,5.90
2019-03-11T22:35:16.727Z,6.00
2019-03-11T22:37:43.656Z,6.10
2019-03-11T22:40:10.650Z,6.00
2019-03-11T22:42:37.568Z,6.10
2019-03-11T22:45:07.204Z,4.90
2019-03-11T22:47:34.117Z,6.00
2019-03-11T22:50:01.046Z,6.00
2019-03-11T22:52:27.997Z,5.90
2019-03-11T22:54:54.930Z,5.90
2019-03-11T22:57:21.840Z,5.90
2019-03-11T22:59:48.802Z,5.90
2019-03-11T23:02:15.731Z,5.90
2019-03-11T23:04:42.671Z,5.90
2019-03-11T23:07:09.613Z,5.90
2019-03-11T23:09:36.544Z,5.80
2019-03-11T23:12:03.493Z,5.80
2019-03-11T23:14:30.435Z,5.80
2019-03-11T23:16:57.361Z,4.40
2019-03-11T23:19:24.304Z,5.80
2019-03-11T23:21:51.253Z,5.80
2019-03-11T23:24:18.228Z,5.80
2019-03-11T23:26:45.129Z,5.80
2019-03-11T23:29:12.085Z,5.80
2019-03-11T23:31:39.001Z,5.80
2019-03-11T23:34:05.909Z,5.70
2019-03-11T23:36:32.849Z,5.70
2019-03-11T23:38:59.779Z,5.60
2019-03-11T23:41:29.068Z,5.60
2019-03-11T23:43:53.665Z,5.70
2019-03-11T23:46:20.905Z,5.70
2019-03-11T23:48:47.824Z,5.60
2019-03-11T23:51:14.760Z,5.70
2019-03-11T23:53:41.685Z,5.60
2019-03-11T23:56:08.595Z,5.10
2019-03-11T23:58:35.539Z,5.70
